Time;durP1;ratioP1;P1;durP2;ratioP2;P2;SDS_P1;SDS_P2;PMS_P1;PMS_P2;Temp;Humidity;BMP_temperature;BMP_pressure;BME280_temperature;BME280_humidity;BME280_pressure;Samples;Min_cycle;Max_cycle;Signal;HPM_P1;HPM_P2
2022/03/04 00:02:41;;;;;;;4.15;3.30;;;16.70;37.30;15.80;101743.00;;;;5049611;28;20033;-72
2022/03/04 00:05:27;;;;;;;4.72;2.92;;;16.70;37.20;15.80;101736.00;;;;5062800;28;20087;-71
2022/03/04 00:08:13;;;;;;;5.22;3.42;;;16.70;37.30;15.80;101748.00;;;;5059728;28;20032;-71
2022/03/04 00:10:59;;;;;;;4.65;3.30;;;16.60;37.20;15.80;101743.00;;;;5064284;28;20037;-71
2022/03/04 00:13:45;;;;;;;5.20;3.42;;;16.70;37.20;15.80;101743.00;;;;5040461;28;20113;-71
2022/03/04 00:16:32;;;;;;;4.07;3.33;;;16.60;37.20;15.80;101740.00;;;;5057357;28;20040;-71
2022/03/04 00:19:18;;;;;;;5.32;3.78;;;16.60;37.20;15.80;101745.00;;;;5059112;28;20720;-71
2022/03/04 00:22:05;;;;;;;6.65;3.65;;;16.70;37.30;15.70;101744.00;;;;5056148;28;20078;-71
2022/03/04 00:24:51;;;;;;;5.28;3.72;;;16.70;37.30;15.70;101745.00;;;;5046848;28;20040;-71
2022/03/04 00:27:37;;;;;;;5.72;3.90;;;16.60;37.20;15.70;101739.00;;;;5064319;28;20037;-71
2022/03/04 00:30:23;;;;;;;5.90;4.25;;;16.70;37.40;15.70;101749.00;;;;5059581;28;20042;-71
2022/03/04 00:33:09;;;;;;;6.30;3.88;;;16.60;37.30;15.70;101742.00;;;;5061103;28;20060;-71
2022/03/04 00:35:55;;;;;;;5.85;3.72;;;16.60;37.30;15.70;101742.00;;;;5054431;28;20044;-72
2022/03/04 00:38:41;;;;;;;6.20;3.85;;;16.60;37.40;15.70;101746.00;;;;5046539;28;20036;-71
2022/03/04 00:41:27;;;;;;;4.65;3.45;;;16.60;37.40;15.70;101737.00;;;;5061709;28;20040;-72
2022/03/04 00:44:13;;;;;;;5.40;3.90;;;16.60;37.40;15.70;101736.00;;;;5060100;28;20426;-72
2022/03/04 00:46:59;;;;;;;4.82;3.60;;;16.60;37.40;15.70;101747.00;;;;5066308;28;20049;-71
2022/03/04 00:49:46;;;;;;;5.68;4.15;;;16.60;37.50;15.70;101751.00;;;;5056745;28;21003;-71
2022/03/04 00:52:32;;;;;;;4.45;3.55;;;16.50;37.40;15.70;101752.00;;;;5049405;28;20041;-71
2022/03/04 00:55:18;;;;;;;4.80;3.55;;;16.60;37.50;15.60;101755.00;;;;5065277;28;20102;-71
2022/03/04 00:58:06;;;;;;;5.53;4.03;;;16.60;37.50;15.60;101757.00;;;;5063033;28;20130;-72
2022/03/04 01:00:52;;;;;;;;;;;16.60;38.30;15.60;101760.00;;;;5062711;28;20401;-71
2022/03/04 01:03:38;;;;;;;8.02;4.55;;;16.60;37.50;15.60;101762.00;;;;5067291;28;19959;-71
2022/03/04 01:06:24;;;;;;;5.85;3.95;;;16.50;37.50;15.60;101763.00;;;;5063747;28;20098;-71
2022/03/04 01:09:10;;;;;;;7.40;3.83;;;16.50;37.60;15.60;101775.00;;;;5058273;28;20055;-71
2022/03/04 01:11:56;;;;;;;6.63;4.22;;;16.50;37.60;15.60;101763.00;;;;5053253;28;20094;-71
2022/03/04 01:14:42;;;;;;;5.93;3.67;;;16.60;37.60;15.60;101776.00;;;;5059232;28;20041;-71
2022/03/04 01:17:28;;;;;;;6.30;4.05;;;16.50;37.70;15.60;101765.00;;;;5063248;28;20044;-71
2022/03/04 01:20:14;;;;;;;5.65;4.32;;;16.50;37.70;15.60;101769.00;;;;5045079;28;20045;-71
2022/03/04 01:23:01;;;;;;;5.60;4.10;;;16.50;37.80;15.60;101771.00;;;;5062816;28;20535;-72
2022/03/04 01:25:47;;;;;;;6.00;4.22;;;16.40;37.80;15.50;101782.00;;;;5042018;28;20048;-71
2022/03/04 01:28:33;;;;;;;5.30;3.88;;;16.40;37.70;15.50;101783.00;;;;5059751;28;20394;-71
2022/03/04 01:31:19;;;;;;;8.82;5.10;;;16.40;37.80;15.50;101785.00;;;;5065157;28;20036;-71
2022/03/04 01:34:05;;;;;;;6.43;4.18;;;16.40;37.90;15.50;101783.00;;;;5044629;28;20487;-71
2022/03/04 01:36:51;;;;;;;6.18;4.10;;;16.40;37.90;15.50;101796.00;;;;5056689;28;20048;-71
2022/03/04 01:39:37;;;;;;;4.80;4.10;;;16.40;38.00;15.50;101784.00;;;;5057924;28;20470;-71
2022/03/04 01:42:23;;;;;;;6.88;4.82;;;16.30;38.00;15.50;101788.00;;;;5061146;28;20044;-71
2022/03/04 01:45:09;;;;;;;6.57;4.47;;;16.30;38.00;15.50;101783.00;;;;5061689;28;20052;-71
2022/03/04 01:47:55;;;;;;;6.95;4.72;;;16.30;38.00;15.50;101785.00;;;;5058402;28;20037;-71
2022/03/04 01:50:42;;;;;;;6.57;4.63;;;16.40;38.10;15.50;101790.00;;;;5058827;28;20060;-72
2022/03/04 01:53:28;;;;;;;9.07;5.07;;;16.30;38.10;15.40;101788.00;;;;5059025;28;20059;-71
2022/03/04 01:56:14;;;;;;;6.78;4.55;;;16.20;38.00;15.40;101792.00;;;;5062828;28;20532;-72
2022/03/04 01:59:00;;;;;;;8.70;5.10;;;16.30;38.10;15.40;101781.00;;;;5056553;28;20041;-71
2022/03/04 02:01:46;;;;;;;7.30;4.93;;;16.30;38.10;15.40;101782.00;;;;5045847;28;20041;-71
2022/03/04 02:04:32;;;;;;;7.28;4.72;;;16.30;38.10;15.40;101777.00;;;;5046652;28;20037;-72
2022/03/04 02:07:18;;;;;;;5.85;4.43;;;16.20;38.10;15.40;101786.00;;;;5042485;28;20136;-71
2022/03/04 02:10:05;;;;;;;7.07;4.43;;;16.20;38.10;15.40;101779.00;;;;5054279;28;20395;-72
2022/03/04 02:12:51;;;;;;;5.63;4.30;;;16.20;38.10;15.30;101786.00;;;;5061441;28;20069;-72
2022/03/04 02:15:42;;;;;;;6.93;5.00;;;16.20;38.20;15.30;101781.00;;;;5042905;28;20040;-72
2022/03/04 02:18:28;;;;;;;7.78;4.88;;;16.20;38.20;15.30;101779.00;;;;5062512;28;20187;-72
2022/03/04 02:21:14;;;;;;;7.28;4.47;;;16.20;38.20;15.30;101769.00;;;;5056595;28;20049;-72
2022/03/04 02:24:01;;;;;;;7.57;4.68;;;16.10;38.20;15.30;101776.00;;;;5035516;28;20038;-72
2022/03/04 02:26:47;;;;;;;6.78;4.65;;;16.20;38.20;15.30;101779.00;;;;5048548;28;20094;-71
2022/03/04 02:29:34;;;;;;;7.05;4.47;;;16.10;38.20;15.30;101772.00;;;;5058669;28;20383;-71
2022/03/04 02:32:20;;;;;;;7.93;5.20;;;16.10;38.20;15.30;101761.00;;;;5064222;28;20048;-71
2022/03/04 02:35:07;;;;;;;6.90;4.63;;;16.10;38.20;15.30;101767.00;;;;5060521;28;20093;-72
2022/03/04 02:37:53;;;;;;;8.35;5.45;;;16.10;38.10;15.30;101763.00;;;;5040190;28;20060;-71
2022/03/04 02:40:39;;;;;;;7.55;4.93;;;16.10;38.10;15.30;101766.00;;;;5048348;28;20040;-71
2022/03/04 02:43:25;;;;;;;7.05;4.95;;;16.20;38.10;15.30;101770.00;;;;5060485;28;20033;-71
2022/03/04 02:46:13;;;;;;;7.95;5.57;;;16.10;38.10;15.30;101772.00;;;;5060946;28;20047;-71
2022/03/04 02:48:59;;;;;;;7.00;4.93;;;16.20;38.10;15.30;101773.00;;;;5051775;28;20037;-72
2022/03/04 02:51:45;;;;;;;8.60;5.63;;;16.20;38.10;15.30;101773.00;;;;5046517;28;20036;-71
2022/03/04 02:54:31;;;;;;;8.45;5.28;;;16.10;38.10;15.30;101768.00;;;;5068171;28;20040;-72
2022/03/04 02:57:17;;;;;;;7.38;5.35;;;16.20;38.20;15.30;101765.00;;;;5059834;28;20044;-72
2022/03/04 03:00:06;;;;;;;8.35;5.78;;;16.10;38.20;15.30;101757.00;;;;5059210;28;20049;-71
2022/03/04 03:02:52;;;;;;;10.07;5.30;;;16.20;38.20;15.30;101766.00;;;;5064099;28;20044;-71
2022/03/04 03:05:38;;;;;;;6.63;5.13;;;16.10;38.20;15.30;101762.00;;;;5046578;28;20044;-71
2022/03/04 03:08:24;;;;;;;8.20;5.63;;;16.10;38.20;15.30;101763.00;;;;5062822;28;20045;-71
2022/03/04 03:11:10;;;;;;;11.27;6.10;;;16.10;38.30;15.30;101753.00;;;;5049723;28;20078;-71
2022/03/04 03:13:56;;;;;;;8.55;5.95;;;16.20;38.30;15.30;101758.00;;;;5060290;28;20386;-72
2022/03/04 03:16:42;;;;;;;9.52;6.13;;;16.10;38.30;15.30;101765.00;;;;5068525;28;20062;-71
2022/03/04 03:19:28;;;;;;;7.30;4.72;;;16.10;38.30;15.20;101771.00;;;;5062245;28;20037;-71
2022/03/04 03:22:16;;;;;;;7.25;5.25;;;16.10;38.30;15.20;101767.00;;;;5060363;28;20037;-71
2022/03/04 03:25:04;;;;;;;8.23;5.53;;;16.10;38.40;15.20;101769.00;;;;5064107;28;20075;-71
2022/03/04 03:27:50;;;;;;;8.40;5.63;;;16.10;38.40;15.20;101771.00;;;;5059861;28;20071;-71
2022/03/04 03:30:36;;;;;;;7.40;5.50;;;16.10;38.40;15.20;101771.00;;;;5052536;28;20032;-72
2022/03/04 03:33:22;;;;;;;7.20;5.40;;;16.10;38.40;15.20;101760.00;;;;5061834;28;20052;-72
2022/03/04 03:36:08;;;;;;;8.80;5.30;;;16.10;38.50;15.20;101774.00;;;;5062366;28;20453;-71
2022/03/04 03:38:54;;;;;;;8.43;5.88;;;16.10;38.50;15.20;101768.00;;;;5046750;28;20043;-71
2022/03/04 03:41:40;;;;;;;8.32;5.72;;;16.00;38.50;15.20;101776.00;;;;5059713;28;20512;-71
2022/03/04 03:44:26;;;;;;;8.18;5.90;;;16.00;38.50;15.20;101782.00;;;;5060765;28;20099;-71
2022/03/04 03:47:12;;;;;;;9.02;6.20;;;16.00;38.50;15.20;101791.00;;;;5062146;28;20037;-71
2022/03/04 03:49:58;;;;;;;7.70;5.82;;;16.00;38.50;15.20;101785.00;;;;5058487;28;20094;-72
2022/03/04 03:52:44;;;;;;;9.27;6.15;;;16.00;38.50;15.20;101782.00;;;;5061176;28;20123;-71
2022/03/04 03:55:31;;;;;;;9.73;6.15;;;16.00;38.50;15.10;101788.00;;;;5063469;28;20044;-71
2022/03/04 03:58:17;;;;;;;8.65;6.28;;;16.00;38.50;15.10;101791.00;;;;5046182;28;20053;-71
2022/03/04 04:01:03;;;;;;;8.38;5.72;;;16.00;38.50;15.10;101789.00;;;;5068101;28;20037;-71
2022/03/04 04:03:49;;;;;;;8.55;6.05;;;16.00;38.60;15.10;101795.00;;;;5042537;28;20486;-72
2022/03/04 04:06:35;;;;;;;8.88;6.00;;;16.00;38.60;15.10;101794.00;;;;5062902;28;20036;-71
2022/03/04 04:09:21;;;;;;;8.98;6.10;;;16.00;38.60;15.10;101794.00;;;;5061824;28;20048;-72
2022/03/04 04:12:08;;;;;;;9.23;6.20;;;16.00;38.60;15.10;101801.00;;;;5064346;28;20032;-71
2022/03/04 04:14:54;;;;;;;9.43;6.43;;;16.00;38.60;15.10;101806.00;;;;5061203;28;20287;-71
2022/03/04 04:17:40;;;;;;;7.82;5.70;;;15.90;38.50;15.10;101810.00;;;;5060231;28;20631;-71
2022/03/04 04:20:26;;;;;;;10.05;6.78;;;16.00;38.60;15.10;101805.00;;;;5067132;28;20040;-72
2022/03/04 04:23:12;;;;;;;8.05;5.72;;;16.00;38.60;15.10;101811.00;;;;5059741;28;20204;-71
2022/03/04 04:25:58;;;;;;;8.48;5.78;;;16.00;38.60;15.10;101815.00;;;;5043633;28;20041;-71
2022/03/04 04:28:45;;;;;;;9.65;6.35;;;15.90;38.40;15.10;101821.00;;;;5061891;28;20044;-71
2022/03/04 04:31:32;;;;;;;9.60;6.28;;;16.00;38.50;15.10;101816.00;;;;5069286;28;20413;-71
2022/03/04 04:34:18;;;;;;;7.80;5.75;;;15.90;38.40;15.10;101815.00;;;;5051024;28;20079;-71
2022/03/04 04:37:04;;;;;;;10.73;6.82;;;15.90;38.40;15.10;101818.00;;;;5052749;28;20047;-71
2022/03/04 04:39:50;;;;;;;9.27;6.10;;;15.90;38.40;15.10;101815.00;;;;5054252;28;20033;-71
2022/03/04 04:42:36;;;;;;;9.02;6.20;;;16.00;38.50;15.10;101819.00;;;;5062201;28;20110;-71
2022/03/04 04:45:23;;;;;;;8.32;5.82;;;15.90;38.40;15.10;101818.00;;;;5061474;28;20094;-71
2022/03/04 04:48:09;;;;;;;8.55;6.18;;;15.90;38.30;15.10;101815.00;;;;5060922;28;20048;-72
2022/03/04 04:50:55;;;;;;;11.88;6.80;;;15.90;38.30;15.10;101809.00;;;;5050281;28;20040;-71
2022/03/04 04:53:41;;;;;;;9.55;6.55;;;15.90;38.30;15.10;101801.00;;;;5059517;28;20112;-72
2022/03/04 04:56:27;;;;;;;9.05;6.40;;;15.90;38.30;15.10;101805.00;;;;5062837;28;20044;-71
2022/03/04 04:59:13;;;;;;;9.50;7.00;;;15.90;38.30;15.10;101806.00;;;;5061356;28;20044;-72
2022/03/04 05:01:59;;;;;;;8.05;5.82;;;16.00;38.30;15.10;101807.00;;;;5060228;28;20043;-71
2022/03/04 05:04:47;;;;;;;9.32;6.28;;;16.00;38.30;15.10;101804.00;;;;5059391;28;20485;-72
2022/03/04 05:07:33;;;;;;;;;;;15.90;38.20;15.00;101800.00;;;;5066037;28;20130;-72
2022/03/04 05:10:19;;;;;;;9.23;6.05;;;15.90;38.30;15.00;101795.00;;;;5059767;28;19913;-72
2022/03/04 05:13:05;;;;;;;8.38;6.32;;;16.00;38.20;15.00;101795.00;;;;5061443;28;20375;-71
2022/03/04 05:15:51;;;;;;;9.80;7.10;;;16.00;38.20;15.00;101800.00;;;;5059809;28;20071;-71
2022/03/04 05:18:37;;;;;;;9.07;6.40;;;15.90;38.20;15.00;101806.00;;;;5062315;28;20114;-71
2022/03/04 05:21:24;;;;;;;9.93;6.90;;;15.90;38.20;15.00;101799.00;;;;5056402;28;20040;-72
2022/03/04 05:24:11;;;;;;;11.15;7.43;;;15.90;38.20;15.00;101806.00;;;;5042698;28;20051;-72
2022/03/04 05:26:57;;;;;;;8.35;6.45;;;15.90;38.20;15.00;101802.00;;;;5060335;28;20090;-71
2022/03/04 05:29:44;;;;;;;8.88;6.53;;;15.90;38.30;15.00;101810.00;;;;5059955;28;20044;-71
2022/03/04 05:32:30;;;;;;;11.25;7.47;;;15.90;38.30;15.00;101815.00;;;;5059949;28;20478;-72
2022/03/04 05:35:16;;;;;;;10.55;7.38;;;15.90;38.30;15.00;101816.00;;;;5057192;28;20041;-72
2022/03/04 05:38:02;;;;;;;10.90;7.18;;;15.90;38.30;15.00;101811.00;;;;5044003;28;20037;-71
2022/03/04 05:40:48;;;;;;;11.02;7.05;;;15.90;38.40;15.00;101818.00;;;;5060675;28;20449;-72
2022/03/04 05:43:34;;;;;;;10.13;7.03;;;15.90;38.40;15.00;101821.00;;;;5057259;28;20041;-71
2022/03/04 05:46:20;;;;;;;9.77;6.82;;;15.90;38.50;15.00;101820.00;;;;5062346;28;20073;-71
2022/03/04 05:49:06;;;;;;;11.55;7.15;;;15.90;38.50;15.00;101823.00;;;;5058048;28;20051;-72
2022/03/04 05:51:52;;;;;;;11.35;7.88;;;15.80;38.50;15.00;101827.00;;;;5059114;28;20033;-71
2022/03/04 05:54:38;;;;;;;9.85;6.80;;;15.90;38.60;15.00;101834.00;;;;5062114;28;20040;-71
2022/03/04 05:57:24;;;;;;;10.88;7.07;;;15.90;38.60;15.00;101826.00;;;;5059127;28;20090;-71
2022/03/04 06:00:12;;;;;;;11.27;7.88;;;15.90;38.60;15.00;101823.00;;;;5062539;28;20052;-71
2022/03/04 06:02:58;;;;;;;10.43;6.88;;;15.80;38.60;14.90;101818.00;;;;5061296;28;20076;-71
2022/03/04 06:05:44;;;;;;;10.07;7.05;;;15.80;38.50;14.90;101817.00;;;;5060110;28;20105;-71
2022/03/04 06:08:30;;;;;;;10.30;7.53;;;15.90;38.60;14.90;101826.00;;;;5049180;28;20040;-71
2022/03/04 06:11:16;;;;;;;11.52;7.13;;;15.80;38.60;14.90;101834.00;;;;5056440;28;20067;-72
2022/03/04 06:14:03;;;;;;;10.93;7.10;;;15.80;38.60;14.90;101827.00;;;;5057379;28;20307;-71
2022/03/04 06:16:51;;;;;;;11.38;8.05;;;15.80;38.60;14.90;101835.00;;;;5032296;28;20124;-71
2022/03/04 06:19:39;;;;;;;10.73;7.60;;;15.80;38.50;14.90;101843.00;;;;5057579;28;20461;-71
2022/03/04 06:22:26;;;;;;;11.07;7.57;;;15.80;38.50;14.90;101846.00;;;;5054869;28;20052;-72
2022/03/04 06:25:12;;;;;;;10.80;7.68;;;15.80;38.60;14.90;101843.00;;;;5053785;28;20131;-71
2022/03/04 06:28:01;;;;;;;10.93;6.85;;;15.80;38.50;14.90;101847.00;;;;5060094;28;20037;-71
2022/03/04 06:30:47;;;;;;;12.68;7.70;;;15.80;38.50;14.90;101845.00;;;;5048461;28;20037;-72
2022/03/04 06:33:33;;;;;;;9.70;6.85;;;15.80;38.50;14.90;101847.00;;;;5045771;28;20056;-72
2022/03/04 06:36:19;;;;;;;9.95;6.72;;;15.80;38.50;14.90;101856.00;;;;5061654;28;20044;-72
2022/03/04 06:39:06;;;;;;;10.55;7.93;;;15.80;38.50;14.90;101861.00;;;;5059282;28;20464;-71
2022/03/04 06:41:52;;;;;;;10.50;6.95;;;15.80;38.40;14.90;101861.00;;;;5056012;28;20041;-71
2022/03/04 06:44:38;;;;;;;12.27;7.10;;;15.80;38.40;14.90;101862.00;;;;5060422;28;20066;-71
2022/03/04 06:47:24;;;;;;;10.30;6.85;;;15.80;38.50;14.90;101872.00;;;;5051685;28;20450;-71
2022/03/04 06:50:12;;;;;;;9.75;7.18;;;15.70;38.40;14.90;101865.00;;;;5054480;28;20044;-72
2022/03/04 06:52:58;;;;;;;9.85;7.25;;;15.80;38.40;14.90;101873.00;;;;5052723;28;20048;-71
2022/03/04 06:55:45;;;;;;;11.40;7.57;;;15.80;38.50;14.80;101880.00;;;;5052025;28;20045;-72
2022/03/04 06:58:31;;;;;;;9.77;6.93;;;15.70;38.40;14.80;101884.00;;;;5062347;28;20889;-71
2022/03/04 07:01:17;;;;;;;10.88;7.60;;;15.80;38.50;14.80;101881.00;;;;5056781;28;20037;-72
2022/03/04 07:04:03;;;;;;;9.20;6.55;;;15.70;38.50;14.80;101881.00;;;;5055968;28;20502;-72
2022/03/04 07:06:49;;;;;;;9.65;7.07;;;15.70;38.50;14.80;101888.00;;;;5027684;28;20041;-72
2022/03/04 07:09:35;;;;;;;11.20;7.07;;;15.70;38.50;14.80;101888.00;;;;5055614;28;20032;-72
2022/03/04 07:12:22;;;;;;;13.27;8.37;;;15.70;38.50;14.80;101883.00;;;;5041667;28;20045;-72
2022/03/04 07:15:09;;;;;;;10.02;6.95;;;15.70;39.20;14.80;101897.00;;;;5055474;28;20268;-72
2022/03/04 07:17:55;;;;;;;11.10;7.13;;;15.70;38.60;14.80;101896.00;;;;5059108;28;20360;-72
2022/03/04 07:20:42;;;;;;;10.15;6.80;;;15.70;38.60;14.80;101909.00;;;;5056556;28;20028;-72
2022/03/04 07:23:28;;;;;;;10.73;7.18;;;15.70;38.60;14.80;101910.00;;;;5056124;28;20554;-72
2022/03/04 07:26:14;;;;;;;9.68;7.20;;;15.70;38.60;14.80;101915.00;;;;5057052;28;20037;-72
2022/03/04 07:29:00;;;;;;;10.80;7.25;;;15.70;38.60;14.80;101915.00;;;;5055418;28;20029;-72
2022/03/04 07:31:46;;;;;;;12.40;6.90;;;15.70;38.70;14.80;101915.00;;;;5057206;28;20040;-72
2022/03/04 07:34:32;;;;;;;10.65;7.47;;;15.70;38.70;14.80;101912.00;;;;5060549;28;20048;-72
2022/03/04 07:37:18;;;;;;;11.15;7.28;;;15.70;38.70;14.80;101903.00;;;;5055695;28;20059;-72
2022/03/04 07:40:05;;;;;;;10.68;6.80;;;15.70;38.70;14.80;101905.00;;;;5056505;28;20117;-72
2022/03/04 07:42:51;;;;;;;11.52;7.38;;;15.70;38.70;14.80;101908.00;;;;5057887;28;20045;-72
2022/03/04 07:45:37;;;;;;;10.88;7.25;;;15.70;38.70;14.80;101893.00;;;;5046246;28;20162;-72
2022/03/04 07:48:24;;;;;;;12.75;7.28;;;15.70;38.60;14.80;101902.00;;;;5056886;28;20486;-72
2022/03/04 07:51:10;;;;;;;9.77;6.55;;;15.70;38.70;14.80;101902.00;;;;5059624;28;20044;-72
2022/03/04 07:53:56;;;;;;;11.75;7.85;;;15.70;38.60;14.80;101896.00;;;;5052773;28;20048;-72
2022/03/04 07:56:42;;;;;;;12.20;7.60;;;15.70;39.30;14.80;101901.00;;;;5059206;28;20132;-72
2022/03/04 07:59:28;;;;;;;10.02;7.10;;;15.70;38.60;14.80;101903.00;;;;5057225;28;20067;-71
2022/03/04 08:02:15;;;;;;;11.32;7.50;;;15.70;38.60;14.80;101900.00;;;;5057779;28;20041;-71
2022/03/04 08:05:01;;;;;;;12.45;7.80;;;15.70;38.50;14.80;101907.00;;;;5057576;28;20044;-72
2022/03/04 08:07:47;;;;;;;11.40;7.60;;;15.70;38.60;14.80;101900.00;;;;5054310;28;20380;-72
2022/03/04 08:10:33;;;;;;;12.20;8.40;;;15.70;38.50;14.80;101910.00;;;;5059455;28;20047;-72
2022/03/04 08:13:20;;;;;;;12.15;7.60;;;15.70;38.50;14.80;101909.00;;;;5056897;28;20506;-72
2022/03/04 08:16:06;;;;;;;11.00;7.43;;;15.70;38.50;14.80;101918.00;;;;5046691;28;20033;-72
2022/03/04 08:18:53;;;;;;;12.48;8.00;;;15.70;38.50;14.80;101915.00;;;;5058532;28;20055;-72
2022/03/04 08:21:39;;;;;;;11.43;7.53;;;15.70;38.40;14.80;101916.00;;;;5055062;28;20166;-72
2022/03/04 08:24:25;;;;;;;10.77;7.35;;;15.70;38.40;14.80;101912.00;;;;5061254;28;20052;-72
2022/03/04 08:27:11;;;;;;;11.32;7.50;;;15.70;38.40;14.80;101912.00;;;;5062369;28;20039;-72
2022/03/04 08:29:57;;;;;;;11.85;7.90;;;15.80;38.50;14.80;101911.00;;;;5062079;28;20102;-72
2022/03/04 08:32:43;;;;;;;11.73;8.02;;;15.80;38.50;14.80;101922.00;;;;5056839;28;20441;-72
2022/03/04 08:35:29;;;;;;;12.02;8.00;;;15.80;38.50;14.80;101913.00;;;;5056661;28;20545;-72
2022/03/04 08:38:15;;;;;;;12.25;7.80;;;15.80;38.50;14.80;101924.00;;;;5055317;28;20052;-72
2022/03/04 08:41:01;;;;;;;11.93;7.78;;;15.70;38.50;14.80;101917.00;;;;5054007;28;20398;-72
2022/03/04 08:43:50;;;;;;;11.25;7.38;;;15.80;38.50;14.80;101922.00;;;;5041504;28;20045;-72
2022/03/04 08:46:36;;;;;;;12.13;7.65;;;15.70;38.40;14.80;101918.00;;;;5056634;28;20051;-72
2022/03/04 08:49:23;;;;;;;12.70;8.10;;;15.80;38.50;14.80;101920.00;;;;5056922;28;20128;-72
2022/03/04 08:52:09;;;;;;;13.52;8.40;;;15.80;38.50;14.80;101917.00;;;;5058297;28;20043;-72
2022/03/04 08:54:55;;;;;;;13.68;9.02;;;15.70;38.40;14.80;101918.00;;;;5059431;28;20041;-72
2022/03/04 08:57:45;;;;;;;13.05;7.75;;;15.80;38.50;14.80;101919.00;;;;5056593;28;20047;-72
2022/03/04 09:00:32;;;;;;;11.75;7.65;;;15.80;38.50;14.80;101920.00;;;;5055311;28;20553;-71
2022/03/04 09:03:18;;;;;;;11.77;8.02;;;15.70;38.40;14.90;101921.00;;;;5055663;28;20041;-71
2022/03/04 09:06:04;;;;;;;13.70;8.82;;;15.80;38.50;14.90;101918.00;;;;5057710;28;20042;-72
2022/03/04 09:08:50;;;;;;;12.18;8.43;;;15.80;38.40;14.90;101927.00;;;;5056850;28;20037;-71
2022/03/04 09:11:36;;;;;;;14.07;8.27;;;15.80;38.40;14.90;101921.00;;;;5051364;28;20506;-71
2022/03/04 09:14:23;;;;;;;15.05;9.20;;;15.80;38.30;14.90;101916.00;;;;5050924;28;20051;-72
2022/03/04 09:17:09;;;;;;;15.00;8.70;;;15.80;38.30;14.90;101930.00;;;;5054940;28;20037;-72
2022/03/04 09:19:55;;;;;;;12.80;8.27;;;15.90;38.40;14.90;101928.00;;;;5044506;28;20094;-72
2022/03/04 09:22:42;;;;;;;15.55;9.38;;;15.90;38.40;14.90;101925.00;;;;5055243;28;20059;-72
2022/03/04 09:25:28;;;;;;;12.25;8.57;;;15.90;38.30;14.90;101927.00;;;;5042083;28;20036;-71
2022/03/04 09:28:15;;;;;;;14.27;9.00;;;15.90;38.30;14.90;101923.00;;;;5056551;28;20041;-72
2022/03/04 09:31:01;;;;;;;13.65;8.68;;;15.90;38.40;14.90;101926.00;;;;5043580;28;20037;-72
2022/03/04 09:33:47;;;;;;;13.93;8.82;;;15.90;38.40;14.90;101924.00;;;;5037994;28;20049;-71
2022/03/04 09:36:33;;;;;;;14.02;8.95;;;15.90;38.40;14.90;101928.00;;;;5057593;28;20048;-72
2022/03/04 09:39:19;;;;;;;14.77;9.25;;;15.90;38.40;14.90;101928.00;;;;5034960;28;20052;-71
2022/03/04 09:42:06;;;;;;;14.90;9.63;;;15.90;38.50;14.90;101912.00;;;;5045265;28;20037;-72
2022/03/04 09:44:52;;;;;;;13.63;9.10;;;15.90;38.50;14.90;101920.00;;;;5059482;28;20076;-72
2022/03/04 09:47:38;;;;;;;15.15;9.65;;;15.90;39.30;14.90;101916.00;;;;5042257;28;20036;-72
2022/03/04 09:50:24;;;;;;;17.00;9.27;;;15.90;38.60;14.90;101927.00;;;;5042650;28;20044;-72
2022/03/04 09:53:11;;;;;;;15.70;9.88;;;15.90;38.60;15.00;101914.00;;;;5034847;28;20044;-72
2022/03/04 09:55:57;;;;;;;16.63;9.93;;;15.90;38.70;14.90;101911.00;;;;5059220;28;20489;-72
2022/03/04 09:58:43;;;;;;;13.52;9.60;;;15.90;38.60;15.00;101917.00;;;;5056828;28;20040;-71
2022/03/04 10:01:29;;;;;;;15.07;9.68;;;15.90;38.70;15.00;101921.00;;;;5057392;28;20056;-71
2022/03/04 10:04:15;;;;;;;13.20;9.02;;;15.90;38.70;15.00;101915.00;;;;5048551;28;20476;-71
2022/03/04 10:07:14;;;;;;;14.68;9.57;;;15.90;38.70;15.00;101919.00;;;;5050831;28;20051;-71
2022/03/04 10:10:02;;;;;;;13.55;9.15;;;15.90;38.70;15.00;101923.00;;;;5057309;28;20043;-71
2022/03/04 10:12:57;;;;;;;13.20;9.05;;;15.90;38.80;15.00;101926.00;;;;5056175;28;20036;-71
2022/03/04 10:15:57;;;;;;;14.05;9.27;;;15.90;38.80;15.00;101913.00;;;;5044127;28;20440;-74
2022/03/04 10:18:43;;;;;;;14.00;9.65;;;16.00;38.90;15.00;101917.00;;;;5054009;28;20444;-72
2022/03/04 10:21:52;;;;;;;13.57;8.90;;;16.00;38.90;15.00;101913.00;;;;5053120;28;20044;-72
2022/03/04 10:24:39;;;;;;;13.60;9.35;;;15.90;38.80;15.00;101913.00;;;;5041584;28;20040;-72
2022/03/04 10:27:25;;;;;;;13.73;9.05;;;16.00;38.80;15.00;101916.00;;;;5045437;28;20032;-71
2022/03/04 10:30:11;;;;;;;13.30;8.85;;;16.00;38.80;15.00;101925.00;;;;5052992;28;20116;-72
2022/03/04 10:33:28;;;;;;;13.55;8.93;;;16.00;38.80;15.00;101920.00;;;;5055908;28;20040;-72
2022/03/04 10:36:14;;;;;;;14.13;8.88;;;16.00;38.80;15.00;101919.00;;;;5040810;28;20383;-72
2022/03/04 10:39:08;;;;;;;12.80;8.57;;;16.00;38.80;15.00;101914.00;;;;5053220;28;20045;-72
2022/03/04 10:41:55;;;;;;;12.07;8.20;;;16.00;38.80;15.00;101923.00;;;;5045083;28;20072;-72
2022/03/04 10:44:41;;;;;;;12.87;8.43;;;16.00;38.70;15.00;101917.00;;;;5054979;28;20098;-72
2022/03/04 10:47:46;;;;;;;14.32;8.73;;;16.00;38.70;15.00;101923.00;;;;5041546;28;20033;-72
2022/03/04 10:50:39;;;;;;;12.20;7.93;;;16.00;38.70;15.00;101921.00;;;;5041133;28;20532;-72
2022/03/04 10:53:28;;;;;;;12.57;8.57;;;16.00;38.70;15.00;101923.00;;;;5057462;28;20045;-72
2022/03/04 10:56:14;;;;;;;11.52;8.30;;;16.00;38.70;15.00;101919.00;;;;5053308;28;20044;-72
2022/03/04 10:59:06;;;;;;;11.48;7.53;;;16.00;39.40;15.10;101914.00;;;;5053902;28;20616;-72
2022/03/04 11:01:55;;;;;;;12.70;8.43;;;16.10;38.90;15.10;101912.00;;;;5044605;28;20041;-72
2022/03/04 11:04:58;;;;;;;10.73;7.05;;;16.10;38.80;15.10;101912.00;;;;5057277;28;20044;-72
2022/03/04 11:07:45;;;;;;;11.88;7.70;;;16.10;38.80;15.10;101909.00;;;;5051836;28;20391;-72
2022/03/04 11:10:31;;;;;;;11.98;7.47;;;16.10;38.80;15.10;101910.00;;;;5043131;28;20045;-72
2022/03/04 11:13:17;;;;;;;11.80;7.55;;;16.10;38.80;15.10;101906.00;;;;5056910;28;20474;-72
2022/03/04 11:16:05;;;;;;;11.95;7.30;;;16.10;38.80;15.10;101905.00;;;;5061468;28;20036;-72
2022/03/04 11:18:51;;;;;;;;;;;16.10;38.80;15.10;101903.00;;;;5057628;28;20474;-72
2022/03/04 11:21:37;;;;;;;10.55;7.25;;;16.10;38.70;15.10;101890.00;;;;5047133;28;20015;-72
2022/03/04 11:24:36;;;;;;;10.35;6.82;;;16.20;38.70;15.10;101896.00;;;;5062396;28;20059;-72
2022/03/04 11:27:22;;;;;;;9.98;6.93;;;16.20;38.60;15.10;101899.00;;;;5045780;28;20060;-72
2022/03/04 11:30:26;;;;;;;10.32;7.18;;;16.20;38.60;15.10;101903.00;;;;5047415;28;20044;-71
2022/03/04 11:33:29;;;;;;;12.70;7.18;;;16.20;38.60;15.10;101899.00;;;;5036653;28;20083;-71
2022/03/04 11:36:20;;;;;;;10.27;6.82;;;16.20;38.50;15.20;101900.00;;;;5058847;28;20126;-72
2022/03/04 11:39:12;;;;;;;11.25;6.88;;;16.20;38.50;15.20;101897.00;;;;5050083;28;20526;-72
2022/03/04 11:42:04;;;;;;;10.18;6.05;;;16.20;38.50;15.20;101896.00;;;;5047348;28;20120;-72
2022/03/04 11:44:54;;;;;;;9.57;6.88;;;16.20;38.50;15.20;101895.00;;;;5057817;28;20532;-72
2022/03/04 11:47:44;;;;;;;8.20;5.97;;;16.30;38.50;15.20;101889.00;;;;5042074;28;20033;-72
2022/03/04 11:50:33;;;;;;;10.00;5.93;;;16.20;38.50;15.20;101895.00;;;;5062164;28;20041;-72
2022/03/04 11:53:22;;;;;;;10.57;6.40;;;16.30;38.50;15.20;101893.00;;;;5059675;28;20052;-72
2022/03/04 11:56:15;;;;;;;8.38;5.82;;;16.30;38.50;15.20;101882.00;;;;5059670;28;20052;-72
2022/03/04 11:59:14;;;;;;;9.55;6.03;;;16.30;38.40;15.20;101890.00;;;;5043798;28;20041;-72
2022/03/04 12:02:02;;;;;;;8.15;5.70;;;16.30;38.40;15.30;101886.00;;;;5027782;28;20106;-72
2022/03/04 12:04:49;;;;;;;;;;;16.30;38.40;15.20;101890.00;;;;5044491;28;20049;-72
2022/03/04 12:07:35;;;;;;;7.45;4.78;;;16.30;38.40;15.30;101889.00;;;;5029984;28;20269;-72
2022/03/04 12:10:23;;;;;;;8.68;5.47;;;16.40;38.20;15.30;101882.00;;;;5059762;28;20049;-72
2022/03/04 12:13:22;;;;;;;8.07;5.03;;;16.40;38.20;15.30;101888.00;;;;5047423;28;20045;-72